Time;durP1;ratioP1;P1;durP2;ratioP2;P2;SDS_P1;SDS_P2;PMS_P1;PMS_P2;Temp;Humidity;BMP_temperature;BMP_pressure;BME280_temperature;BME280_humidity;BME280_pressure;Samples;Min_cycle;Max_cycle;Signal;HPM_P1;HPM_P2
2022/08/25 00:01:32;;;;;;;12.05;5.78;;;;;;;19.94;88.47;101893.12;1696073;84;21026;-86
2022/08/25 00:04:00;;;;;;;14.83;5.75;;;;;;;19.96;88.51;101887.80;1702336;84;21762;-85
2022/08/25 00:06:27;;;;;;;16.00;6.75;;;;;;;19.99;88.61;101885.15;1681990;84;21486;-86
2022/08/25 00:08:58;;;;;;;12.07;5.85;;;;;;;20.10;88.94;101881.16;1701955;84;21031;-86
2022/08/25 00:11:23;;;;;;;10.00;5.78;;;;;;;20.10;88.94;101881.16;1704735;83;21050;-86
2022/08/25 00:13:53;;;;;;;9.73;5.22;;;;;;;20.10;88.85;101868.70;1688090;83;21537;-86
2022/08/25 00:16:20;;;;;;;14.18;5.22;;;;;;;20.19;88.86;101878.52;1691951;83;21736;-86
2022/08/25 00:18:52;;;;;;;14.03;5.53;;;;;;;20.23;88.80;101883.44;1704338;84;20995;-86
2022/08/25 00:21:20;;;;;;;16.37;5.78;;;;;;;20.17;88.97;101857.57;1692920;83;21062;-86
2022/08/25 00:23:48;;;;;;;16.05;5.95;;;;;;;20.17;88.97;101857.57;1687262;84;21473;-86
2022/08/25 00:26:15;;;;;;;13.28;5.40;;;;;;;20.24;89.16;101855.83;1673045;84;21008;-86
2022/08/25 00:28:43;;;;;;;16.42;6.20;;;;;;;20.39;88.93;101869.22;1699488;84;21797;-86
2022/08/25 00:31:19;;;;;;;14.75;5.25;;;;;;;20.40;88.95;101866.98;1690095;84;21185;-86
2022/08/25 00:33:46;;;;;;;13.40;5.47;;;;;;;20.42;88.91;101866.57;1703663;83;20968;-86
2022/08/25 00:36:14;;;;;;;13.38;4.87;;;;;;;20.42;88.91;101866.57;1697436;83;21108;-85
2022/08/25 00:38:42;;;;;;;10.98;4.03;;;;;;;20.33;89.03;101850.05;1697232;83;21488;-85
2022/08/25 00:41:10;;;;;;;17.82;4.55;;;;;;;20.46;89.04;101868.77;1648592;84;21773;-85
2022/08/25 00:43:55;;;;;;;14.28;4.45;;;;;;;20.41;89.00;101858.08;1687555;83;20983;-85
2022/08/25 00:46:29;;;;;;;9.15;3.98;;;;;;;20.44;88.98;101868.80;1686977;84;21086;-86
2022/08/25 00:49:03;;;;;;;16.62;3.87;;;;;;;20.37;89.04;101853.17;1715395;83;27134;-86
2022/08/25 00:51:38;;;;;;;12.33;4.60;;;;;;;20.39;89.10;101862.09;1705847;83;21026;-86
2022/08/25 00:54:05;;;;;;;18.55;4.20;;;;;;;20.35;89.14;101865.65;1726097;82;21739;-86
2022/08/25 00:56:33;;;;;;;11.68;4.00;;;;;;;20.34;89.25;101875.88;1725872;83;20994;-86
2022/08/25 00:59:00;;;;;;;10.68;4.00;;;;;;;20.34;89.30;101870.53;1726260;83;21002;-86
2022/08/25 01:01:26;;;;;;;10.78;3.75;;;;;;;20.34;89.30;101870.53;1699160;83;21199;-85
2022/08/25 01:03:53;;;;;;;10.23;4.35;;;;;;;20.39;89.56;101869.22;1699515;81;21015;-86
2022/08/25 01:06:22;;;;;;;13.35;4.50;;;;;;;20.34;89.63;101849.59;1726504;83;22417;-86
2022/08/25 01:08:49;;;;;;;15.75;4.22;;;;;;;20.49;89.62;101867.00;1726410;83;21039;-85
2022/08/25 01:11:16;;;;;;;18.90;5.62;;;;;;;20.54;89.56;101867.91;1724284;83;20963;-86
2022/08/25 01:13:46;;;;;;;14.38;5.25;;;;;;;20.60;89.50;101867.06;1705974;83;20975;-86
2022/08/25 01:16:14;;;;;;;13.03;3.90;;;;;;;20.62;89.42;101863.94;1721857;83;21666;-86
2022/08/25 01:18:56;;;;;;;20.95;4.50;;;;;;;20.62;89.26;101869.74;1726430;83;21164;-86
2022/08/25 01:21:25;;;;;;;13.70;4.47;;;;;;;20.61;89.30;101871.53;1726604;83;20955;-85
2022/08/25 01:23:52;;;;;;;13.93;3.90;;;;;;;20.63;89.28;101868.83;1701312;83;21016;-86
2022/08/25 01:26:22;;;;;;;14.38;4.08;;;;;;;20.61;89.15;101871.53;1710990;83;21249;-86
2022/08/25 01:31:35;;;;;;;15.15;4.65;;;;;;;20.52;89.06;101868.81;1726376;83;21735;-86
2022/08/25 01:34:02;;;;;;;16.35;3.90;;;;;;;20.49;89.13;101862.10;1697946;83;21012;-86
2022/08/25 01:36:30;;;;;;;19.77;4.17;;;;;;;20.46;89.17;101864.34;1689578;83;21014;-86
2022/08/25 01:38:57;;;;;;;18.55;5.83;;;;;;;20.42;89.15;101858.55;1710172;83;21442;-86
2022/08/25 01:42:00;;;;;;;17.05;5.87;;;;;;;20.38;89.21;101864.33;1700937;83;20983;-86
2022/08/25 01:44:27;;;;;;;23.10;5.37;;;;;;;20.36;89.33;101860.77;1718703;83;21718;-85
2022/08/25 01:46:54;;;;;;;22.20;6.53;;;;;;;20.36;89.03;101862.09;1702888;83;21006;-86
2022/08/25 01:49:20;;;;;;;19.12;6.08;;;;;;;20.36;89.48;101863.86;1714943;83;20971;-86
2022/08/25 01:51:51;;;;;;;24.07;6.62;;;;;;;20.34;89.44;101860.29;1678804;85;21434;-85
2022/08/25 01:54:23;;;;;;;21.65;6.33;;;;;;;20.34;89.46;101862.97;1655557;85;21033;-86
2022/08/25 01:56:50;;;;;;;18.00;6.17;;;;;;;20.35;89.58;101868.78;1684475;84;21860;-86
2022/08/25 01:59:18;;;;;;;15.90;5.45;;;;;;;20.37;89.61;101862.53;1679848;83;21059;-86
2022/08/25 02:01:44;;;;;;;15.03;5.35;;;;;;;20.38;89.73;101865.67;1663083;84;21477;-86
2022/08/25 02:04:11;;;;;;;14.18;5.03;;;;;;;20.43;89.67;101860.77;1682028;84;21047;-86
2022/08/25 02:06:39;;;;;;;21.73;6.00;;;;;;;20.50;89.75;101871.48;1685466;84;21517;-86
2022/08/25 02:09:10;;;;;;;12.93;5.08;;;;;;;20.55;89.71;101873.72;1672896;83;21784;-86
2022/08/25 02:11:40;;;;;;;17.73;4.70;;;;;;;20.59;89.72;101869.27;1690906;84;21035;-86
2022/08/25 02:14:20;;;;;;;17.82;5.00;;;;;;;20.71;89.64;101872.43;1672386;84;21493;-86
2022/08/25 02:16:49;;;;;;;18.60;4.62;;;;;;;20.77;89.57;101877.78;1693474;84;21004;-87
2022/08/25 02:19:17;;;;;;;15.85;5.92;;;;;;;20.86;89.52;101872.89;1672494;84;21011;-86
2022/08/25 02:21:44;;;;;;;19.10;5.35;;;;;;;20.93;89.34;101874.67;1672503;85;21746;-86
2022/08/25 02:24:11;;;;;;;13.85;5.15;;;;;;;20.98;89.21;101878.22;1681675;83;21008;-86
2022/08/25 02:26:37;;;;;;;13.83;4.85;;;;;;;21.00;89.09;101872.42;1674637;84;21007;-86
2022/08/25 02:29:05;;;;;;;14.75;4.80;;;;;;;21.02;88.90;101869.33;1670874;85;21042;-86
2022/08/25 02:31:32;;;;;;;28.10;6.95;;;;;;;21.04;88.72;101871.98;1670438;84;21058;-86
2022/08/25 02:33:58;;;;;;;14.90;7.00;;;;;;;21.04;88.61;101861.27;1678669;84;21734;-86
2022/08/25 02:36:25;;;;;;;22.55;6.22;;;;;;;21.05;88.55;101859.05;1682122;84;20980;-86
2022/08/25 02:38:52;;;;;;;15.30;5.75;;;;;;;21.06;88.49;101858.14;1679572;83;21486;-86
2022/08/25 02:41:22;;;;;;;20.80;6.53;;;;;;;21.07;88.55;101859.94;1672286;84;21446;-86
2022/08/25 02:43:50;;;;;;;16.70;6.12;;;;;;;21.09;88.48;101855.02;1672487;84;21020;-86
2022/08/25 02:46:19;;;;;;;14.87;5.47;;;;;;;21.10;88.35;101851.91;1672461;84;22426;-86
2022/08/25 02:48:46;;;;;;;16.50;6.28;;;;;;;21.10;88.40;101851.46;1672351;84;21015;-86
2022/08/25 02:51:13;;;;;;;16.48;6.28;;;;;;;21.13;88.40;101854.15;1692337;84;21485;-86
2022/08/25 02:53:46;;;;;;;19.70;6.70;;;;;;;21.16;88.37;101847.88;1687349;84;20984;-86
2022/08/25 02:56:13;;;;;;;;;;;;;;;21.18;88.32;101839.86;1677913;84;21001;-86
2022/08/25 02:58:40;;;;;;;14.80;5.55;;;;;;;21.19;88.32;101835.84;1686167;84;21750;-86
2022/08/25 03:01:10;;;;;;;20.40;5.70;;;;;;;21.19;88.18;101832.25;1697824;84;20972;-86
2022/08/25 03:03:39;;;;;;;23.67;6.45;;;;;;;21.05;88.14;101810.87;1672334;84;21043;-86
2022/08/25 03:06:08;;;;;;;17.67;6.10;;;;;;;21.17;88.30;101832.25;1672436;84;21785;-86
2022/08/25 03:08:36;;;;;;;17.15;6.58;;;;;;;21.20;88.26;101834.05;1683037;84;20980;-86
2022/08/25 03:11:06;;;;;;;19.32;6.12;;;;;;;21.19;88.25;101828.23;1679590;83;21707;-85
2022/08/25 03:13:34;;;;;;;18.05;5.70;;;;;;;21.16;88.31;101831.82;1672612;84;21001;-85
2022/08/25 03:16:01;;;;;;;14.18;5.45;;;;;;;21.18;88.36;101840.73;1677973;85;21019;-85
2022/08/25 03:18:28;;;;;;;16.07;5.95;;;;;;;21.15;88.32;101833.62;1657518;85;21440;-85
2022/08/25 03:20:57;;;;;;;16.85;6.12;;;;;;;21.13;88.34;101843.86;1691880;84;21831;-85
2022/08/25 03:23:24;;;;;;;12.53;5.80;;;;;;;21.09;88.33;101840.30;1661392;85;22456;-86
2022/08/25 03:28:40;;;;;;;19.70;6.00;;;;;;;21.01;88.44;101834.06;1673053;84;21061;-85
2022/08/25 03:31:07;;;;;;;18.95;11.18;;;;;;;20.94;88.54;101828.27;1688485;85;20991;-85
2022/08/25 03:33:34;;;;;;;14.50;6.08;;;;;;;20.92;88.70;101831.39;1678136;84;21444;-85
2022/08/25 03:36:02;;;;;;;19.98;6.37;;;;;;;20.90;88.77;101835.86;1662785;85;21788;-85
2022/08/25 03:38:29;;;;;;;15.30;6.95;;;;;;;20.89;88.85;101837.66;1674359;84;21015;-86
2022/08/25 03:40:56;;;;;;;16.77;6.75;;;;;;;20.93;89.06;101838.09;1661232;85;20980;-85
2022/08/25 03:43:23;;;;;;;14.63;5.20;;;;;;;20.97;89.09;101843.00;1672335;84;21474;-85
2022/08/25 03:45:50;;;;;;;14.90;6.53;;;;;;;20.97;88.93;101839.87;1671497;85;21079;-86
2022/08/25 03:48:17;;;;;;;14.13;6.15;;;;;;;20.96;88.84;101834.51;1663027;85;21772;-85
2022/08/25 03:50:45;;;;;;;12.43;6.00;;;;;;;20.93;88.76;101834.53;1674866;85;20963;-85
2022/08/25 03:53:16;;;;;;;11.57;6.28;;;;;;;20.92;88.80;101840.77;1628163;86;21623;-86
2022/08/25 03:55:43;;;;;;;14.10;7.45;;;;;;;20.91;88.94;101842.98;1671952;85;21497;-85
2022/08/25 03:58:11;;;;;;;13.83;5.78;;;;;;;20.91;89.02;101842.98;1674782;85;21520;-85
2022/08/25 04:00:37;;;;;;;15.03;6.15;;;;;;;20.94;89.14;101842.98;1678829;83;22580;-86
2022/08/25 04:03:04;;;;;;;11.90;6.37;;;;;;;20.99;89.15;101844.34;1666142;83;20995;-85
2022/08/25 04:05:31;;;;;;;19.25;6.53;;;;;;;21.03;89.05;101847.45;1682526;85;21023;-85
2022/08/25 04:08:02;;;;;;;11.40;5.80;;;;;;;21.05;89.01;101852.36;1682488;85;21019;-85
2022/08/25 04:10:29;;;;;;;11.73;5.60;;;;;;;21.06;89.02;101847.44;1694246;83;21103;-86
2022/08/25 04:12:55;;;;;;;12.15;6.15;;;;;;;21.10;89.07;101850.13;1667106;85;21735;-86
2022/08/25 04:15:24;;;;;;;19.15;6.50;;;;;;;21.15;88.93;101850.10;1655165;86;21103;-86
2022/08/25 04:17:50;;;;;;;10.95;6.60;;;;;;;21.14;88.81;101843.86;1663368;83;20972;-85
2022/08/25 04:20:20;;;;;;;12.47;6.58;;;;;;;21.16;88.80;101842.53;1666998;85;20995;-86
2022/08/25 04:22:47;;;;;;;23.35;7.15;;;;;;;21.19;88.91;101842.95;1682443;85;21142;-86
2022/08/25 04:25:14;;;;;;;15.95;5.72;;;;;;;21.23;88.93;101840.30;1680360;83;21786;-86
2022/08/25 04:27:41;;;;;;;14.13;5.90;;;;;;;21.30;88.92;101831.78;1686806;83;20999;-84
2022/08/25 04:30:09;;;;;;;12.60;6.30;;;;;;;21.35;88.96;101826.86;1682295;85;20979;-86
2022/08/25 04:32:36;;;;;;;12.25;6.20;;;;;;;21.43;88.95;101822.81;1655206;85;21040;-84
2022/08/25 04:35:04;;;;;;;12.98;5.50;;;;;;;21.53;88.97;101821.06;1667463;84;21063;-86
2022/08/25 04:37:32;;;;;;;12.85;7.25;;;;;;;21.64;88.82;101825.02;1697578;84;22502;-85
2022/08/25 04:40:04;;;;;;;18.48;6.10;;;;;;;21.71;88.60;101822.30;1704497;83;20996;-86
2022/08/25 04:42:31;;;;;;;23.40;9.83;;;;;;;21.86;88.75;101813.77;1686346;84;21442;-89
2022/08/25 04:45:00;;;;;;;13.98;7.17;;;;;;;22.14;88.75;101817.19;1689906;83;20960;-89
2022/08/25 04:47:27;;;;;;;15.38;10.08;;;;;;;22.47;88.65;101816.57;1676200;83;21028;-89
2022/08/25 04:50:06;;;;;;;17.27;8.50;;;;;;;22.67;87.92;101819.08;1659786;86;21732;-91
2022/08/25 04:52:33;;;;;;;20.72;8.08;;;;;;;22.83;87.26;101819.85;1658908;86;21035;-88
2022/08/25 04:55:00;;;;;;;17.60;8.65;;;;;;;22.84;86.32;101814.48;1652817;85;21442;-86
2022/08/25 04:57:34;;;;;;;20.68;8.23;;;;;;;22.76;85.85;101812.75;1672762;84;20990;-90
2022/08/25 05:00:01;;;;;;;19.48;7.25;;;;;;;22.93;86.54;101816.16;1689169;83;21019;-87
2022/08/25 05:02:30;;;;;;;20.32;7.08;;;;;;;23.62;87.67;101809.20;1674475;83;21784;-88
2022/08/25 05:04:56;;;;;;;16.12;6.97;;;;;;;24.23;86.72;101808.83;1706332;83;21441;-90
2022/08/25 05:07:32;;;;;;;14.55;5.83;;;;;;;24.86;85.85;101802.46;1728577;82;21086;-89
2022/08/25 05:09:53;;;;;;;18.17;6.60;;;;;;;25.31;84.51;101807.06;1697501;84;21002;-89
2022/08/25 05:12:50;;;;;;;17.85;5.97;;;;;;;25.57;83.05;101805.19;1729259;83;21128;-90
2022/08/25 05:18:02;;;;;;;23.15;8.13;;;;;;;26.12;81.27;101812.55;1700429;83;21044;-86
2022/08/25 05:20:46;;;;;;;16.52;6.95;;;;;;;26.14;79.50;101815.63;1700615;83;21446;-87
2022/08/25 05:23:14;;;;;;;;;;;;;;;25.76;78.52;101817.81;1662870;84;20999;-86
2022/08/25 05:25:41;;;;;;;16.15;7.42;;;;;;;25.57;78.77;101814.16;1642911;86;20165;-87
2022/08/25 05:28:21;;;;;;;11.57;5.62;;;;;;;25.24;78.26;101828.30;1668010;84;21736;-86
2022/08/25 05:30:53;;;;;;;15.50;5.47;;;;;;;24.82;78.09;101822.29;1660074;84;28279;-86
2022/08/25 05:33:20;;;;;;;15.80;5.50;;;;;;;24.49;78.80;101821.00;1630752;86;21035;-87
2022/08/25 05:35:47;;;;;;;13.72;4.97;;;;;;;24.33;79.06;101828.44;1659337;84;21030;-87
2022/08/25 05:38:14;;;;;;;11.73;5.10;;;;;;;24.21;79.43;101820.07;1694482;82;21022;-87
2022/08/25 05:40:42;;;;;;;14.53;5.08;;;;;;;24.19;79.45;101813.83;1657466;86;21760;-87
2022/08/25 05:43:09;;;;;;;19.27;6.78;;;;;;;24.09;79.29;101816.23;1645997;86;20995;-87
2022/08/25 05:45:46;;;;;;;17.05;5.17;;;;;;;23.96;79.25;101808.78;1644788;85;21598;-86
2022/08/25 05:48:13;;;;;;;17.27;5.10;;;;;;;23.94;79.49;101811.49;1627955;85;21258;-86
2022/08/25 05:50:40;;;;;;;18.92;4.75;;;;;;;24.02;79.78;101810.91;1640468;86;21022;-86
2022/08/25 05:53:06;;;;;;;20.00;4.92;;;;;;;24.08;79.64;101802.34;1636284;85;22641;-87
2022/08/25 05:55:33;;;;;;;12.20;4.47;;;;;;;24.12;79.38;101804.98;1643943;84;20982;-86
2022/08/25 05:58:00;;;;;;;15.05;5.28;;;;;;;24.20;79.44;101806.20;1644340;85;21038;-86
2022/08/25 06:00:27;;;;;;;15.58;4.50;;;;;;;24.24;79.40;101799.86;1685213;85;20983;-87
2022/08/25 06:02:53;;;;;;;12.58;4.37;;;;;;;24.32;79.24;101807.81;1688739;83;21059;-86
2022/08/25 06:05:21;;;;;;;9.30;4.35;;;;;;;24.33;78.71;101806.45;1688420;85;22458;-87
2022/08/25 06:07:51;;;;;;;15.08;4.87;;;;;;;24.28;78.33;101816.38;1686290;85;21905;-87
2022/08/25 06:10:19;;;;;;;12.98;4.90;;;;;;;24.09;78.44;101802.78;1684519;83;21449;-85
2022/08/25 06:12:45;;;;;;;13.30;4.28;;;;;;;24.23;78.42;101817.81;1688656;83;20980;-87
2022/08/25 06:15:14;;;;;;;15.10;4.55;;;;;;;24.20;78.30;101822.34;1683058;83;21017;-85
2022/08/25 06:17:41;;;;;;;14.95;5.12;;;;;;;24.24;78.26;101824.08;1693856;84;21741;-87
2022/08/25 06:20:12;;;;;;;11.80;4.08;;;;;;;24.24;78.19;101816.00;1656437;85;21471;-86
2022/08/25 06:22:39;;;;;;;15.40;4.35;;;;;;;24.30;78.06;101821.75;1656359;84;21917;-87
2022/08/25 06:25:08;;;;;;;15.43;4.92;;;;;;;24.24;77.92;101822.27;1695057;83;20987;-87
2022/08/25 06:27:35;;;;;;;21.95;5.05;;;;;;;24.21;77.84;101822.33;1687455;83;21015;-88
2022/08/25 06:30:03;;;;;;;16.32;5.30;;;;;;;24.19;78.16;101821.44;1694455;83;21739;-87
2022/08/25 06:32:31;;;;;;;10.58;4.37;;;;;;;24.26;78.03;101820.91;1635607;86;21010;-85
2022/08/25 06:34:58;;;;;;;12.88;4.70;;;;;;;24.38;78.04;101826.55;1646556;84;21023;-88
2022/08/25 06:37:25;;;;;;;11.50;4.90;;;;;;;24.55;78.15;101832.61;1717891;82;21103;-88
2022/08/25 06:39:52;;;;;;;19.30;4.72;;;;;;;24.62;77.54;101836.07;1688810;84;21492;-88
2022/08/25 06:42:19;;;;;;;11.08;4.47;;;;;;;24.71;77.67;101829.66;1724200;81;21805;-85
2022/08/25 06:44:46;;;;;;;16.07;5.50;;;;;;;24.87;77.37;101831.19;1734972;81;20982;-85
2022/08/25 06:47:14;;;;;;;18.35;6.53;;;;;;;24.97;76.91;101836.83;1728615;81;20982;-86
2022/08/25 06:49:42;;;;;;;13.20;4.97;;;;;;;25.00;76.53;101839.48;1736012;81;21011;-86
2022/08/25 06:52:10;;;;;;;15.30;5.50;;;;;;;24.98;76.13;101833.66;1749421;81;21034;-88
2022/08/25 06:54:42;;;;;;;23.67;6.97;;;;;;;25.00;76.07;101838.13;1725297;82;21740;-86
2022/08/25 06:57:09;;;;;;;13.90;4.83;;;;;;;24.94;75.36;101840.03;1687540;85;21015;-86
2022/08/25 06:59:38;;;;;;;14.93;5.58;;;;;;;24.78;75.54;101847.50;1711757;83;20977;-85
2022/08/25 07:02:08;;;;;;;18.98;5.15;;;;;;;24.77;75.64;101837.63;1722835;82;21240;-87
2022/08/25 07:04:35;;;;;;;10.10;5.00;;;;;;;24.83;75.92;101849.20;1688337;81;20995;-86
2022/08/25 07:07:02;;;;;;;19.12;5.17;;;;;;;24.87;75.55;101855.42;1725054;81;21784;-86
2022/08/25 07:09:29;;;;;;;17.82;5.55;;;;;;;24.82;75.34;101855.48;1725625;81;21488;-87
2022/08/25 07:11:56;;;;;;;14.25;5.45;;;;;;;24.69;75.15;101868.72;1719945;81;21003;-86
2022/08/25 07:14:23;;;;;;;17.12;5.75;;;;;;;24.63;75.51;101868.83;1727701;81;20987;-86
2022/08/25 07:16:50;;;;;;;18.40;5.92;;;;;;;24.59;75.50;101868.45;1744981;81;21071;-86
2022/08/25 07:19:19;;;;;;;15.65;5.40;;;;;;;24.53;75.59;101872.12;1684492;84;21730;-86
2022/08/25 07:21:47;;;;;;;13.13;5.42;;;;;;;24.60;75.56;101869.74;1727521;81;20971;-86
2022/08/25 07:24:14;;;;;;;21.82;6.15;;;;;;;24.71;75.60;101877.66;1700100;83;21007;-87
2022/08/25 07:26:42;;;;;;;10.75;5.15;;;;;;;24.82;75.56;101877.02;1714718;81;21031;-88
2022/08/25 07:29:14;;;;;;;16.12;5.12;;;;;;;24.94;75.18;101879.08;1662007;84;21047;-87
2022/08/25 07:31:41;;;;;;;14.45;5.20;;;;;;;24.94;74.30;101881.77;1720872;81;21803;-87
2022/08/25 07:36:55;;;;;;;12.03;5.45;;;;;;;25.23;74.29;101888.05;1717049;81;20995;-87
2022/08/25 07:39:23;;;;;;;19.90;6.22;;;;;;;25.21;73.98;101894.77;1715884;82;21987;-88
2022/08/25 07:41:50;;;;;;;19.67;5.70;;;;;;;25.20;73.29;101888.06;1711315;82;21088;-88
2022/08/25 07:44:17;;;;;;;18.75;5.20;;;;;;;25.12;73.28;101888.67;1661518;84;21798;-88
2022/08/25 07:46:44;;;;;;;15.70;7.53;;;;;;;25.05;73.14;101891.03;1712183;82;21394;-87
2022/08/25 07:49:11;;;;;;;12.68;5.72;;;;;;;25.10;73.43;101897.23;1717700;82;21027;-87
2022/08/25 07:51:38;;;;;;;19.37;6.80;;;;;;;25.24;73.44;101896.55;1699795;82;21360;-88
2022/08/25 07:54:05;;;;;;;18.70;5.80;;;;;;;25.20;73.22;101888.94;1703660;82;21043;-86
2022/08/25 07:56:32;;;;;;;15.25;7.15;;;;;;;25.19;73.24;101894.38;1713117;82;21204;-88
2022/08/25 07:58:59;;;;;;;14.58;6.42;;;;;;;25.12;73.17;101892.23;1672507;84;20996;-87
2022/08/25 08:01:26;;;;;;;13.75;5.97;;;;;;;25.06;73.26;101891.44;1649191;85;21008;-87
2022/08/25 08:03:52;;;;;;;13.90;6.05;;;;;;;24.98;73.36;101890.23;1658846;85;21059;-87
2022/08/25 08:06:22;;;;;;;16.75;6.15;;;;;;;24.97;73.71;101895.20;1658910;86;21079;-86
2022/08/25 08:08:49;;;;;;;14.80;5.80;;;;;;;25.05;73.84;101898.64;1658233;85;22563;-87
2022/08/25 08:11:29;;;;;;;21.40;5.85;;;;;;;25.10;73.57;101899.47;1658560;85;21564;-87
2022/08/25 08:13:56;;;;;;;18.40;6.72;;;;;;;25.00;73.36;101904.13;1711332;83;21006;-87
2022/08/25 08:16:26;;;;;;;14.68;7.30;;;;;;;24.90;73.13;101909.68;1674266;85;39390;-87
2022/08/25 08:18:53;;;;;;;13.95;6.53;;;;;;;24.75;73.30;101900.04;1685855;83;21092;-86
2022/08/25 08:21:23;;;;;;;22.02;6.92;;;;;;;24.65;73.40;101900.65;1686070;83;21857;-87
2022/08/25 08:23:50;;;;;;;19.42;6.50;;;;;;;24.48;73.38;101902.21;1686062;83;21014;-87
2022/08/25 08:26:17;;;;;;;21.17;7.17;;;;;;;24.37;73.87;101888.91;1686213;83;21469;-88
2022/08/25 08:28:44;;;;;;;21.45;6.85;;;;;;;24.32;73.98;101890.76;1687971;83;21523;-88
2022/08/25 08:31:11;;;;;;;17.65;7.58;;;;;;;24.17;74.03;101886.94;1704049;83;21074;-87
2022/08/25 08:33:38;;;;;;;21.90;7.17;;;;;;;24.11;74.33;101887.03;1705934;83;21768;-88
2022/08/25 08:36:10;;;;;;;21.20;7.75;;;;;;;24.03;74.52;101888.02;1703486;83;21017;-87
2022/08/25 08:38:38;;;;;;;19.10;11.60;;;;;;;23.94;74.68;101892.17;1678660;84;21015;-86
2022/08/25 08:44:36;;;;;;;20.45;8.78;;;;;;;23.68;74.84;101900.05;1683426;84;21651;-87
2022/08/25 08:47:17;;;;;;;23.10;9.63;;;;;;;23.43;75.23;101881.96;1679124;84;21841;-87
2022/08/25 08:50:09;;;;;;;16.48;8.35;;;;;;;23.28;75.72;101883.47;1663982;85;20987;-87
2022/08/25 08:52:50;;;;;;;26.07;10.90;;;;;;;23.17;76.07;101888.05;1633160;86;21536;-87
2022/08/25 08:55:39;;;;;;;27.80;9.75;;;;;;;23.03;76.48;101886.39;1632048;86;21500;-86
2022/08/25 08:58:14;;;;;;;22.02;10.20;;;;;;;22.90;76.91;101879.30;1651573;86;21077;-86
2022/08/25 09:00:45;;;;;;;17.40;9.08;;;;;;;22.93;77.50;101881.06;1661397;85;21961;-86
2022/08/25 09:03:41;;;;;;;26.65;10.43;;;;;;;22.91;77.92;101885.09;1652476;85;21039;-86
2022/08/25 09:06:29;;;;;;;30.70;10.88;;;;;;;22.88;78.02;101883.34;1653464;86;21055;-86
2022/08/25 09:09:01;;;;;;;25.32;10.82;;;;;;;22.86;78.31;101890.52;1630029;86;21013;-86
2022/08/25 09:11:42;;;;;;;21.35;9.75;;;;;;;22.84;78.45;101889.64;1636870;86;21065;-86
2022/08/25 09:14:32;;;;;;;28.73;10.80;;;;;;;22.75;78.82;101879.40;1642281;85;21932;-86
2022/08/25 09:17:20;;;;;;;24.55;11.68;;;;;;;22.76;79.07;101870.00;1613112;87;21032;-87
2022/08/25 09:20:09;;;;;;;32.35;11.97;;;;;;;22.82;79.16;101863.69;1660157;86;20972;-87
2022/08/25 09:23:08;;;;;;;20.90;11.28;;;;;;;22.77;79.18;101855.69;1650698;86;21495;-85
2022/08/25 09:26:24;;;;;;;31.12;14.47;;;;;;;22.76;79.63;101848.98;1663017;86;21031;-87
2022/08/25 09:29:03;;;;;;;30.05;14.13;;;;;;;22.82;79.71;101852.49;1660203;86;22512;-86
2022/08/25 09:32:21;;;;;;;26.93;16.05;;;;;;;22.74;79.96;101846.31;1633368;86;21023;-89
2022/08/25 09:34:48;;;;;;;;;;;;;;;22.80;80.19;101841.34;1674944;84;21473;-87
2022/08/25 09:37:15;;;;;;;21.85;13.05;;;;;;;22.87;80.39;101843.08;1680933;84;20648;-88
2022/08/25 09:39:56;;;;;;;26.75;14.15;;;;;;;22.88;80.18;101835.44;1673039;84;20996;-88
2022/08/25 09:42:44;;;;;;;28.80;13.68;;;;;;;22.93;80.58;101825.56;1672851;84;21751;-87
2022/08/25 09:45:13;;;;;;;42.15;16.40;;;;;;;23.15;80.76;101826.75;1656852;85;21059;-87
2022/08/25 09:47:44;;;;;;;34.27;14.07;;;;;;;23.35;80.51;101821.14;1676284;84;20999;-88
2022/08/25 09:50:16;;;;;;;32.65;13.70;;;;;;;23.45;80.38;101815.66;1633694;85;20982;-87
2022/08/25 09:52:46;;;;;;;36.03;12.87;;;;;;;23.56;80.09;101818.69;1697195;84;21000;-88
2022/08/25 09:55:29;;;;;;;26.60;13.22;;;;;;;23.75;80.26;101820.69;1701170;84;21717;-88
2022/08/25 09:57:56;;;;;;;39.85;15.32;;;;;;;24.02;79.86;101804.66;1695586;84;21003;-87
2022/08/25 10:00:32;;;;;;;29.98;13.88;;;;;;;24.11;79.19;101805.88;1674854;84;20995;-86
2022/08/25 10:03:21;;;;;;;32.35;15.28;;;;;;;24.29;79.24;101801.12;1672401;84;21398;-86
2022/08/25 10:06:02;;;;;;;36.38;15.10;;;;;;;24.38;78.56;101795.59;1672313;84;21019;-87
2022/08/25 10:08:46;;;;;;;35.05;15.18;;;;;;;24.44;78.54;101795.06;1656097;85;21719;-86
2022/08/25 10:11:38;;;;;;;26.68;14.18;;;;;;;24.45;77.79;101785.17;1688189;84;21024;-87
2022/08/25 10:14:27;;;;;;;28.12;13.95;;;;;;;24.43;77.91;101782.50;1698520;84;20992;-87
2022/08/25 10:17:23;;;;;;;34.05;14.58;;;;;;;24.44;77.82;101780.72;1675695;84;21455;-88
2022/08/25 10:19:44;;;;;;;31.35;14.23;;;;;;;24.43;77.71;101785.66;1665647;84;20976;-88
2022/08/25 10:22:23;;;;;;;30.72;14.03;;;;;;;24.32;77.57;101780.44;1687241;84;21738;-87
2022/08/25 10:24:49;;;;;;;29.30;13.22;;;;;;;24.24;77.53;101780.56;1697924;83;20999;-87
2022/08/25 10:27:37;;;;;;;24.52;12.95;;;;;;;24.39;78.00;101782.13;1695976;83;20975;-87
2022/08/25 10:30:32;;;;;;;33.95;15.80;;;;;;;24.70;78.13;101787.48;1672462;84;21512;-87
2022/08/25 10:33:19;;;;;;;28.05;15.13;;;;;;;24.96;77.82;101785.67;1672241;84;20996;-87
2022/08/25 10:35:57;;;;;;;27.77;15.53;;;;;;;25.05;77.08;101784.62;1685435;84;21671;-86
2022/08/25 10:38:48;;;;;;;30.88;15.08;;;;;;;24.97;76.47;101778.91;1651309;86;21147;-87
2022/08/25 10:41:47;;;;;;;23.05;11.08;;;;;;;24.94;76.48;101777.61;1654377;85;20990;-87
2022/08/25 10:47:46;;;;;;;22.00;10.35;;;;;;;25.31;76.39;101778.30;1653252;85;21003;-87
2022/08/25 10:50:38;;;;;;;21.60;11.08;;;;;;;25.57;75.75;101760.23;1658539;85;21784;-87
2022/08/25 10:53:22;;;;;;;31.45;13.18;;;;;;;25.74;75.42;101770.66;1626179;86;20986;-88
2022/08/25 10:56:10;;;;;;;25.37;10.15;;;;;;;25.80;74.97;101773.67;1649274;85;20988;-88
2022/08/25 10:59:05;;;;;;;27.00;11.03;;;;;;;25.96;74.97;101769.75;1678046;85;20960;-88
2022/08/25 11:02:00;;;;;;;26.25;11.57;;;;;;;26.07;74.13;101773.55;1659582;85;21082;-88
2022/08/25 11:04:42;;;;;;;20.85;10.63;;;;;;;26.06;74.10;101770.41;1687429;84;20972;-88
2022/08/25 11:07:32;;;;;;;20.70;8.98;;;;;;;26.12;73.28;101767.56;1695800;84;21528;-88
2022/08/25 11:10:06;;;;;;;26.20;9.83;;;;;;;26.01;73.44;101756.14;1673587;83;21027;-88
2022/08/25 11:12:46;;;;;;;31.57;13.30;;;;;;;26.07;73.23;101770.86;1689374;83;21107;-88
2022/08/25 11:15:33;;;;;;;25.00;11.03;;;;;;;26.10;73.36;101766.72;1672872;84;21489;-88
2022/08/25 11:18:07;;;;;;;38.80;12.73;;;;;;;26.22;73.04;101770.05;1687700;84;23578;-87
2022/08/25 11:20:54;;;;;;;27.67;12.00;;;;;;;26.32;72.88;101759.47;1657747;84;21032;-88
2022/08/25 11:23:42;;;;;;;27.40;11.25;;;;;;;26.33;72.67;101767.53;1696828;84;21024;-87
2022/08/25 11:26:12;;;;;;;31.55;10.15;;;;;;;26.40;72.46;101761.97;1683050;84;21016;-87
2022/08/25 11:28:57;;;;;;;31.55;10.93;;;;;;;26.51;72.31;101759.89;1700863;84;21000;-87
2022/08/25 11:31:23;;;;;;;23.77;9.40;;;;;;;26.53;71.42;101760.26;1687585;83;21760;-87
2022/08/25 11:33:50;;;;;;;32.28;10.13;;;;;;;26.62;71.82;101752.43;1691014;84;21432;-86
2022/08/25 11:36:28;;;;;;;23.92;9.28;;;;;;;26.79;71.59;101747.93;1697516;84;21005;-87
2022/08/25 11:39:15;;;;;;;32.33;9.93;;;;;;;26.91;71.20;101757.52;1703354;83;20972;-87
2022/08/25 11:42:19;;;;;;;28.77;10.10;;;;;;;27.05;70.87;101758.03;1696796;83;21540;-87
2022/08/25 11:45:20;;;;;;;26.48;10.25;;;;;;;26.89;69.96;101762.07;1702034;83;21006;-89
2022/08/25 11:48:07;;;;;;;26.07;9.33;;;;;;;26.79;70.32;101753.33;1677976;83;20987;-88
2022/08/25 11:50:36;;;;;;;25.55;10.38;;;;;;;26.90;70.34;101753.93;1623910;87;20959;-87
2022/08/25 11:53:31;;;;;;;26.02;10.65;;;;;;;26.96;70.31;101751.05;1632062;86;21053;-87
2022/08/25 11:56:05;;;;;;;29.25;10.25;;;;;;;26.96;69.93;101753.75;1677714;83;21030;-86
2022/08/25 11:58:47;;;;;;;21.07;8.88;;;;;;;26.88;69.62;101752.17;1715423;83;21688;-86